Time;durP1;ratioP1;P1;durP2;ratioP2;P2;SDS_P1;SDS_P2;PMS_P1;PMS_P2;Temp;Humidity;BMP_temperature;BMP_pressure;BME280_temperature;BME280_humidity;BME280_pressure;Samples;Min_cycle;Max_cycle;Signal;HPM_P1;HPM_P2
2023/08/06 00:00:22;;;;;;;7.05;6.35;;;;;;;15.02;100.00;98505.88;5013363;28;20512;-90
2023/08/06 00:02:48;;;;;;;8.43;6.55;;;;;;;15.13;100.00;98529.44;5013174;28;20036;-89
2023/08/06 00:05:13;;;;;;;7.75;7.05;;;;;;;15.26;100.00;98552.84;5029526;28;20033;-90
2023/08/06 00:07:38;;;;;;;7.00;6.30;;;;;;;15.13;100.00;98536.47;5034114;28;20025;-89
2023/08/06 00:10:04;;;;;;;6.40;5.80;;;;;;;15.10;100.00;98529.69;5034221;28;20498;-89
2023/08/06 00:12:29;;;;;;;6.97;6.38;;;;;;;15.13;100.00;98534.69;5033658;28;20384;-89
2023/08/06 00:14:55;;;;;;;7.80;7.10;;;;;;;15.13;100.00;98542.56;5034180;28;20067;-90
2023/08/06 00:17:20;;;;;;;7.32;6.63;;;;;;;15.11;100.00;98528.72;5033958;28;20116;-90
2023/08/06 00:19:46;;;;;;;7.10;6.50;;;;;;;15.06;100.00;98524.81;5034380;28;20079;-89
2023/08/06 00:22:11;;;;;;;7.00;6.40;;;;;;;15.05;100.00;98517.94;5034252;28;20024;-89
2023/08/06 00:24:37;;;;;;;8.07;7.32;;;;;;;15.08;100.00;98517.66;5033919;28;20052;-89
2023/08/06 00:27:02;;;;;;;7.00;6.40;;;;;;;14.95;100.00;98478.50;5033988;28;20025;-90
2023/08/06 00:29:28;;;;;;;6.97;6.35;;;;;;;15.10;100.00;98494.75;5033702;28;20028;-90
2023/08/06 00:31:53;;;;;;;6.78;6.05;;;;;;;15.18;100.00;98508.06;5033827;28;20464;-90
2023/08/06 00:34:19;;;;;;;6.38;5.50;;;;;;;15.01;100.00;98461.44;5033800;28;20110;-89
2023/08/06 00:36:44;;;;;;;6.25;5.65;;;;;;;15.02;100.00;98457.84;5034008;28;20032;-90
2023/08/06 00:39:09;;;;;;;6.05;5.55;;;;;;;15.18;100.00;98481.84;5033777;28;20021;-89
2023/08/06 00:41:35;;;;;;;5.65;5.15;;;;;;;15.15;100.00;98479.47;5051546;28;20025;-90
2023/08/06 00:44:00;;;;;;;5.28;4.88;;;;;;;15.20;100.00;98491.22;5029146;28;20547;-90
2023/08/06 00:46:26;;;;;;;4.38;3.90;;;;;;;15.16;100.00;98476.72;5029110;28;20045;-90
2023/08/06 00:48:52;;;;;;;4.90;4.50;;;;;;;15.25;100.00;98479.53;5012741;28;20067;-90
2023/08/06 00:51:17;;;;;;;4.65;4.28;;;;;;;15.23;100.00;98472.63;5014161;28;20101;-90
2023/08/06 00:53:43;;;;;;;4.15;3.85;;;;;;;15.20;100.00;98457.13;5016267;28;20528;-89
2023/08/06 00:56:09;;;;;;;4.35;3.90;;;;;;;15.15;100.00;98433.09;5016626;28;20128;-90
2023/08/06 00:58:36;;;;;;;3.92;3.63;;;;;;;15.02;100.00;98414.13;5032829;28;20091;-90
2023/08/06 01:01:01;;;;;;;4.30;3.90;;;;;;;15.06;100.00;98415.50;5032692;28;20084;-90
2023/08/06 01:03:27;;;;;;;4.90;3.53;;;;;;;14.96;100.00;98406.78;5016017;28;20039;-89
2023/08/06 01:05:52;;;;;;;4.22;3.85;;;;;;;15.02;100.00;98416.72;5032768;28;20064;-90
2023/08/06 01:08:36;;;;;;;3.45;3.20;;;;;;;14.78;100.00;98355.88;5032709;28;20072;-90
2023/08/06 01:11:13;;;;;;;3.60;3.30;;;;;;;15.08;100.00;98400.47;5033055;28;20049;-90
2023/08/06 01:13:46;;;;;;;3.65;3.35;;;;;;;15.03;100.00;98376.44;5032146;28;20132;-90
2023/08/06 01:16:11;;;;;;;2.70;2.50;;;;;;;15.12;100.00;98377.44;5052354;28;20113;-90
2023/08/06 01:18:38;;;;;;;3.33;3.03;;;;;;;15.09;100.00;98369.84;5052292;28;20056;-90
2023/08/06 01:21:04;;;;;;;3.53;3.22;;;;;;;15.08;100.00;98373.41;5035894;28;20083;-89
2023/08/06 01:23:29;;;;;;;3.00;2.80;;;;;;;14.96;100.00;98354.34;5035596;28;20480;-90
2023/08/06 01:26:14;;;;;;;3.40;3.10;;;;;;;14.93;100.00;98331.81;5052383;28;20037;-90
2023/08/06 01:28:45;;;;;;;4.00;2.95;;;;;;;15.08;100.00;98349.81;5052569;28;20056;-90
2023/08/06 01:31:18;;;;;;;3.72;3.42;;;;;;;14.89;100.00;98327.81;5036029;28;20466;-90
2023/08/06 01:33:47;;;;;;;3.30;3.00;;;;;;;15.06;100.00;98349.97;5036787;28;20120;-89
2023/08/06 01:36:15;;;;;;;3.70;3.40;;;;;;;15.06;100.00;98338.66;5054781;28;20025;-90
2023/08/06 01:38:40;;;;;;;4.18;3.88;;;;;;;15.09;100.00;98338.38;5036466;28;20056;-90
2023/08/06 01:41:05;;;;;;;3.90;3.60;;;;;;;15.05;100.00;98324.72;5055173;28;20028;-90
2023/08/06 01:43:31;;;;;;;4.03;3.72;;;;;;;14.89;100.00;98287.66;5036558;28;20033;-90
2023/08/06 01:45:56;;;;;;;3.60;3.30;;;;;;;15.04;100.00;98301.22;5036731;28;20116;-90
2023/08/06 01:48:21;;;;;;;4.05;3.75;;;;;;;15.02;100.00;98303.16;5036873;28;20059;-90
2023/08/06 01:50:47;;;;;;;3.60;3.30;;;;;;;14.95;100.00;98298.44;5036827;28;20029;-90
2023/08/06 01:53:12;;;;;;;4.00;3.60;;;;;;;15.03;100.00;98307.44;5032129;28;20046;-90
2023/08/06 01:55:37;;;;;;;3.08;2.88;;;;;;;14.96;100.00;98304.53;5015428;28;20099;-89
2023/08/06 01:58:03;;;;;;;3.97;3.67;;;;;;;15.08;100.00;98316.56;5032296;28;20067;-89
2023/08/06 02:00:28;;;;;;;2.90;2.70;;;;;;;15.08;100.00;98318.34;5015677;28;20060;-90
2023/08/06 02:02:54;;;;;;;3.15;2.85;;;;;;;15.13;100.00;98317.00;5015145;28;20053;-90
2023/08/06 02:05:19;;;;;;;3.72;2.72;;;;;;;15.11;100.00;98300.56;5016626;28;20113;-91
2023/08/06 02:07:44;;;;;;;3.45;3.15;;;;;;;15.04;100.00;98267.97;5016313;28;20476;-90
2023/08/06 02:10:10;;;;;;;2.88;2.67;;;;;;;15.00;100.00;98263.97;5033563;28;20041;-90
2023/08/06 02:12:35;;;;;;;2.50;2.30;;;;;;;15.19;100.00;98285.00;5025837;28;20041;-90
2023/08/06 02:15:00;;;;;;;2.63;2.42;;;;;;;15.14;100.00;98276.69;5027093;28;20040;-90
2023/08/06 02:17:26;;;;;;;2.90;2.28;;;;;;;15.20;100.00;98284.03;5026148;28;20035;-91
2023/08/06 02:19:51;;;;;;;1.95;1.85;;;;;;;15.23;100.00;98293.44;5031121;28;20056;-90
2023/08/06 02:22:16;;;;;;;2.20;2.08;;;;;;;15.21;100.00;98288.31;5032063;28;20092;-90
2023/08/06 02:24:42;;;;;;;2.20;2.00;;;;;;;15.26;100.00;98300.22;5058320;28;20064;-90
2023/08/06 02:27:07;;;;;;;1.73;1.63;;;;;;;15.19;100.00;98313.84;5054795;28;20036;-89
2023/08/06 02:29:32;;;;;;;1.80;1.70;;;;;;;15.08;100.00;98292.13;5035927;28;20372;-90
2023/08/06 02:31:58;;;;;;;2.58;1.45;;;;;;;15.30;100.00;98317.34;5036034;28;20060;-90
2023/08/06 02:34:23;;;;;;;1.90;1.63;;;;;;;15.25;100.00;98296.72;5031169;28;20033;-90
2023/08/06 02:36:48;;;;;;;1.73;1.63;;;;;;;15.17;100.00;98265.94;5014368;28;20053;-90
2023/08/06 02:39:14;;;;;;;1.70;1.60;;;;;;;15.22;100.00;98240.16;5014572;28;20049;-90
2023/08/06 02:41:39;;;;;;;1.50;1.40;;;;;;;15.34;100.00;98240.03;5011148;28;20044;-90
2023/08/06 02:44:05;;;;;;;2.60;1.35;;;;;;;15.11;100.00;98203.53;5011168;28;20033;-90
2023/08/06 02:46:30;;;;;;;1.20;1.10;;;;;;;15.15;100.00;98196.22;5011068;28;20044;-90
2023/08/06 02:48:55;;;;;;;1.50;1.40;;;;;;;15.35;100.00;98221.53;4994850;28;20069;-90
2023/08/06 02:51:20;;;;;;;1.27;1.10;;;;;;;15.24;100.00;98190.16;4994751;28;20608;-90
2023/08/06 02:53:48;;;;;;;0.90;0.90;;;;;;;15.25;100.00;98186.56;4994424;28;20037;-89
2023/08/06 02:56:13;;;;;;;0.95;0.95;;;;;;;15.32;100.00;98206.06;4994671;28;20504;-89
2023/08/06 02:58:38;;;;;;;1.25;1.00;;;;;;;15.12;100.00;98175.50;5010858;28;20030;-90
2023/08/06 03:01:05;;;;;;;1.05;0.95;;;;;;;15.25;100.00;98194.44;4994708;28;20045;-90
2023/08/06 03:03:31;;;;;;;1.17;1.13;;;;;;;15.23;100.00;98184.09;5010744;28;20030;-89
2023/08/06 03:05:57;;;;;;;1.05;1.05;;;;;;;15.17;100.00;98189.91;5008797;28;20068;-89
2023/08/06 03:08:23;;;;;;;0.95;0.95;;;;;;;15.22;100.00;98199.97;5030611;28;20045;-89
2023/08/06 03:10:49;;;;;;;0.93;0.93;;;;;;;15.17;100.00;98183.81;5030321;28;20037;-90
2023/08/06 03:13:16;;;;;;;1.42;1.20;;;;;;;15.14;100.00;98179.66;5029392;28;20045;-90
2023/08/06 03:15:41;;;;;;;1.00;1.00;;;;;;;15.08;100.00;98174.94;5052682;28;20044;-90
2023/08/06 03:18:06;;;;;;;0.90;0.90;;;;;;;15.14;100.00;98189.34;5053237;28;20025;-89
2023/08/06 03:20:32;;;;;;;1.30;1.05;;;;;;;15.07;100.00;98185.59;5034597;28;20024;-89
2023/08/06 03:22:58;;;;;;;1.50;1.02;;;;;;;15.08;100.00;98209.03;5035066;28;20029;-89
2023/08/06 03:25:23;;;;;;;0.90;0.90;;;;;;;15.14;100.00;98226.88;5052787;28;20032;-90
2023/08/06 03:27:49;;;;;;;2.42;0.95;;;;;;;15.18;100.00;98233.50;5034634;28;20491;-90
2023/08/06 03:30:15;;;;;;;3.53;1.05;;;;;;;15.08;100.00;98208.22;5034734;28;20361;-90
2023/08/06 03:32:40;;;;;;;2.15;1.17;;;;;;;15.01;100.00;98184.34;5034378;28;20121;-89
2023/08/06 03:35:06;;;;;;;1.10;1.00;;;;;;;15.15;100.00;98211.97;5034672;28;20553;-89
2023/08/06 03:37:31;;;;;;;1.08;1.00;;;;;;;15.10;100.00;98191.41;5052243;28;20029;-89
2023/08/06 03:39:57;;;;;;;1.00;1.00;;;;;;;15.05;100.00;98185.72;5034465;28;20026;-90
2023/08/06 03:42:22;;;;;;;0.90;0.88;;;;;;;14.82;100.00;98144.97;5034718;28;20074;-89
2023/08/06 03:44:47;;;;;;;1.30;1.13;;;;;;;14.94;100.00;98183.22;5034133;28;20384;-89
2023/08/06 03:47:13;;;;;;;1.00;1.00;;;;;;;14.98;100.00;98195.91;5034393;28;20116;-89
2023/08/06 03:49:38;;;;;;;2.35;1.10;;;;;;;14.94;100.00;98196.31;5034132;28;20025;-89
2023/08/06 03:52:05;;;;;;;1.95;1.30;;;;;;;14.91;100.00;98183.47;5034312;28;20093;-89
2023/08/06 03:54:30;;;;;;;1.00;1.00;;;;;;;14.94;100.00;98175.34;5034390;28;20041;-89
2023/08/06 03:56:56;;;;;;;1.00;1.00;;;;;;;14.94;100.00;98159.63;5034508;28;20384;-89
2023/08/06 03:59:21;;;;;;;1.05;1.00;;;;;;;14.78;100.00;98130.47;5034356;28;20119;-90
2023/08/06 04:01:46;;;;;;;2.03;0.80;;;;;;;14.75;100.00;98115.88;5033984;28;20028;-90
2023/08/06 04:04:12;;;;;;;0.70;0.70;;;;;;;14.86;100.00;98143.75;5034142;28;20086;-89
2023/08/06 04:06:37;;;;;;;0.60;0.60;;;;;;;14.85;100.00;98153.41;5033789;28;20039;-89
2023/08/06 04:09:02;;;;;;;0.90;0.90;;;;;;;14.79;100.00;98140.00;5034384;28;20035;-89
2023/08/06 04:11:28;;;;;;;1.10;0.80;;;;;;;14.87;100.00;98132.28;5034281;28;20029;-90
2023/08/06 04:13:55;;;;;;;0.82;0.80;;;;;;;14.76;100.00;98108.84;5051846;28;20053;-89
2023/08/06 04:16:20;;;;;;;0.98;0.85;;;;;;;14.78;100.00;98115.56;5051981;28;20062;-89
2023/08/06 04:18:46;;;;;;;0.95;0.90;;;;;;;14.73;100.00;98104.69;5033833;28;20033;-90
2023/08/06 04:21:11;;;;;;;0.90;0.90;;;;;;;14.81;100.00;98127.59;5051899;28;20098;-89
2023/08/06 04:23:37;;;;;;;1.13;1.02;;;;;;;14.77;100.00;98107.88;5033974;28;20025;-89
2023/08/06 04:26:02;;;;;;;1.00;1.00;;;;;;;14.79;100.00;98112.00;5052913;28;20080;-89
2023/08/06 04:28:27;;;;;;;0.90;0.90;;;;;;;14.85;100.00;98128.97;5038211;28;20028;-89
2023/08/06 04:30:53;;;;;;;1.38;1.33;;;;;;;14.66;100.00;98109.66;5038060;28;20036;-88
2023/08/06 04:33:19;;;;;;;1.00;1.00;;;;;;;14.72;100.00;98116.97;5056000;28;20057;-89
2023/08/06 04:35:45;;;;;;;1.20;1.10;;;;;;;14.75;100.00;98136.84;5037724;28;20036;-89
2023/08/06 04:38:10;;;;;;;1.35;1.10;;;;;;;14.66;100.00;98128.00;5038172;28;20029;-90
2023/08/06 04:40:36;;;;;;;1.20;1.10;;;;;;;14.80;100.00;98144.28;5037728;28;20176;-89
2023/08/06 04:43:01;;;;;;;2.20;1.27;;;;;;;15.00;100.00;98171.34;5055846;28;20036;-89
2023/08/06 04:45:27;;;;;;;0.98;0.98;;;;;;;14.89;100.00;98148.72;5037556;28;20083;-89
2023/08/06 04:47:52;;;;;;;0.90;0.90;;;;;;;14.90;100.00;98143.34;5055838;28;20104;-89
2023/08/06 04:50:19;;;;;;;2.55;1.27;;;;;;;14.86;100.00;98147.19;5037637;28;20112;-89
2023/08/06 04:52:44;;;;;;;1.02;1.02;;;;;;;14.85;100.00;98156.03;5037744;28;20025;-89
2023/08/06 04:55:10;;;;;;;1.00;1.00;;;;;;;14.88;100.00;98168.88;5055859;28;20037;-90
2023/08/06 04:57:35;;;;;;;1.27;1.13;;;;;;;14.78;100.00;98149.66;5037412;28;20542;-89
2023/08/06 05:00:01;;;;;;;0.93;0.93;;;;;;;14.85;100.00;98149.94;5038123;28;20052;-89
2023/08/06 05:02:26;;;;;;;1.58;1.00;;;;;;;14.89;100.00;98151.34;5038040;28;20025;-90
2023/08/06 05:04:51;;;;;;;0.93;0.82;;;;;;;14.86;100.00;98146.38;5037725;28;20119;-89
2023/08/06 05:07:17;;;;;;;1.38;0.95;;;;;;;14.86;100.00;98139.31;5038316;28;20036;-89
2023/08/06 05:09:42;;;;;;;0.73;0.73;;;;;;;14.86;100.00;98144.56;5037394;28;20449;-89
2023/08/06 05:12:07;;;;;;;1.42;0.80;;;;;;;14.66;100.00;98120.13;5055554;28;20036;-89
2023/08/06 05:14:33;;;;;;;1.00;1.00;;;;;;;14.82;100.00;98122.22;5037043;28;20055;-89
2023/08/06 05:16:58;;;;;;;0.70;0.70;;;;;;;14.75;100.00;98092.28;5036993;28;20362;-90
2023/08/06 05:19:23;;;;;;;0.85;0.75;;;;;;;14.82;100.00;98114.34;5037037;28;20021;-89
2023/08/06 05:21:49;;;;;;;0.77;0.77;;;;;;;14.83;100.00;98116.03;5037355;28;20032;-89
2023/08/06 05:24:14;;;;;;;0.80;0.80;;;;;;;14.87;100.00;98116.56;5037094;28;20021;-90
2023/08/06 05:26:39;;;;;;;0.82;0.70;;;;;;;14.88;100.00;98119.06;5037130;28;20029;-89
2023/08/06 05:29:05;;;;;;;0.70;0.70;;;;;;;14.85;100.00;98119.31;5055173;28;20037;-89
2023/08/06 05:31:30;;;;;;;0.77;0.77;;;;;;;14.88;100.00;98121.69;5037216;28;20028;-89
2023/08/06 05:33:55;;;;;;;0.60;0.60;;;;;;;14.89;100.00;98123.34;5036762;28;20071;-89
2023/08/06 05:36:21;;;;;;;1.10;0.60;;;;;;;14.90;100.00;98124.16;5054798;28;20067;-89
2023/08/06 05:38:47;;;;;;;0.65;0.65;;;;;;;15.01;100.00;98131.09;5036611;28;20071;-89
2023/08/06 05:41:12;;;;;;;0.70;0.70;;;;;;;14.76;100.00;98053.78;5032193;28;20036;-89
2023/08/06 05:43:38;;;;;;;0.95;0.80;;;;;;;14.97;100.00;98071.03;5032180;28;20038;-89
2023/08/06 05:46:04;;;;;;;0.70;0.70;;;;;;;14.85;100.00;98059.03;5015447;28;20132;-90
2023/08/06 05:48:29;;;;;;;0.85;0.85;;;;;;;14.97;100.00;98075.47;5015644;28;20057;-89
2023/08/06 05:50:55;;;;;;;1.00;0.90;;;;;;;15.06;100.00;98079.06;5032025;28;20436;-89
2023/08/06 05:53:20;;;;;;;1.10;1.00;;;;;;;15.01;100.00;98068.16;5015645;28;20646;-90
2023/08/06 05:55:45;;;;;;;1.25;0.50;;;;;;;15.01;100.00;98079.47;4992305;28;20086;-89
2023/08/06 05:58:11;;;;;;;0.60;0.60;;;;;;;14.58;100.00;98027.41;4992585;28;20049;-89
2023/08/06 06:00:36;;;;;;;1.02;0.60;;;;;;;14.54;100.00;98029.50;4992681;28;20073;-89
2023/08/06 06:03:02;;;;;;;0.60;0.60;;;;;;;15.00;100.00;98100.56;4975852;28;20027;-89
2023/08/06 06:05:27;;;;;;;0.70;0.70;;;;;;;14.70;100.00;98061.22;4975972;28;20039;-89
2023/08/06 06:07:53;;;;;;;0.60;0.60;;;;;;;15.02;100.00;98112.59;4992213;28;20082;-90
2023/08/06 06:10:18;;;;;;;0.77;0.77;;;;;;;14.69;100.00;98064.81;4976153;28;20042;-89
2023/08/06 06:12:43;;;;;;;0.95;0.95;;;;;;;15.00;100.00;98097.94;4975597;28;20054;-89
2023/08/06 06:15:09;;;;;;;1.95;0.90;;;;;;;15.01;100.00;98076.03;4975995;28;20057;-89
2023/08/06 06:17:34;;;;;;;0.90;0.90;;;;;;;14.90;100.00;98067.31;4993330;28;20113;-89
2023/08/06 06:20:00;;;;;;;1.15;1.00;;;;;;;14.98;100.00;98077.13;4995188;28;20038;-90
2023/08/06 06:22:25;;;;;;;0.63;0.63;;;;;;;14.99;100.00;98078.75;4995394;28;20129;-89
2023/08/06 06:24:51;;;;;;;0.82;0.82;;;;;;;14.90;100.00;98061.25;4994949;28;20036;-89
2023/08/06 06:27:16;;;;;;;0.70;0.70;;;;;;;15.03;100.00;98084.56;5041771;28;20063;-89
2023/08/06 06:29:41;;;;;;;1.33;1.23;;;;;;;15.00;100.00;98077.81;5035750;28;20112;-89
2023/08/06 06:32:07;;;;;;;0.80;0.80;;;;;;;14.86;100.00;98049.38;5035897;28;20469;-89
2023/08/06 06:34:32;;;;;;;0.60;0.60;;;;;;;15.01;100.00;98065.53;5053608;28;20421;-89
2023/08/06 06:36:57;;;;;;;1.00;0.60;;;;;;;15.01;100.00;98050.63;5053754;28;20349;-89
2023/08/06 06:39:23;;;;;;;1.50;0.70;;;;;;;14.93;100.00;98029.53;5035871;28;20487;-89
2023/08/06 06:41:50;;;;;;;1.00;0.82;;;;;;;14.88;100.00;98042.22;5035697;28;20029;-90
2023/08/06 06:44:15;;;;;;;0.63;0.63;;;;;;;14.91;100.00;98062.88;5053315;28;20403;-89
2023/08/06 06:46:41;;;;;;;0.57;0.57;;;;;;;15.06;100.00;98102.66;5035409;28;20033;-90
2023/08/06 06:49:06;;;;;;;0.68;0.60;;;;;;;14.98;100.00;98087.59;5034758;28;20033;-89
2023/08/06 06:51:31;;;;;;;0.63;0.63;;;;;;;14.90;100.00;98088.28;5037704;28;20040;-90
2023/08/06 06:53:57;;;;;;;2.25;0.80;;;;;;;14.96;100.00;98094.78;5035976;28;20119;-89
2023/08/06 06:56:23;;;;;;;0.85;0.77;;;;;;;15.10;100.00;98119.78;5036615;28;20075;-90
2023/08/06 06:58:48;;;;;;;0.60;0.60;;;;;;;15.13;100.00;98111.63;5053740;28;20025;-89
2023/08/06 07:01:14;;;;;;;0.73;0.73;;;;;;;14.95;100.00;98065.09;5036132;28;20029;-90
2023/08/06 07:03:39;;;;;;;0.80;0.80;;;;;;;15.13;100.00;98075.75;5036230;28;20028;-90
2023/08/06 07:06:05;;;;;;;0.70;0.70;;;;;;;15.20;100.00;98078.63;5035751;28;20033;-89
2023/08/06 07:08:31;;;;;;;0.60;0.60;;;;;;;15.14;100.00;98073.94;5036350;28;20036;-89
2023/08/06 07:11:03;;;;;;;0.60;0.60;;;;;;;15.16;100.00;98079.88;5036697;28;20495;-89
2023/08/06 07:13:29;;;;;;;1.05;0.75;;;;;;;15.04;100.00;98057.38;5054180;28;20373;-89
2023/08/06 07:15:55;;;;;;;1.00;0.82;;;;;;;15.31;100.00;98096.84;5037213;28;20031;-89
2023/08/06 07:18:20;;;;;;;1.45;0.73;;;;;;;15.19;100.00;98075.19;5037451;28;20035;-90
2023/08/06 07:20:54;;;;;;;0.75;0.75;;;;;;;15.38;100.00;98100.59;5041132;28;20060;-90
2023/08/06 07:23:21;;;;;;;0.77;0.75;;;;;;;15.37;100.00;98083.16;5070661;28;20035;-90
2023/08/06 07:25:47;;;;;;;1.13;0.80;;;;;;;15.46;100.00;98094.63;5072659;28;20021;-89
2023/08/06 07:28:13;;;;;;;1.10;0.80;;;;;;;15.29;100.00;98048.09;5072704;28;20035;-89
2023/08/06 07:30:43;;;;;;;0.57;0.57;;;;;;;15.26;100.00;98038.75;5053169;28;20021;-90
2023/08/06 07:33:08;;;;;;;2.58;0.82;;;;;;;15.43;100.00;98051.13;5068947;28;20025;-89
2023/08/06 07:35:34;;;;;;;0.70;0.70;;;;;;;15.42;100.00;98044.25;5045358;28;20032;-89
2023/08/06 07:37:59;;;;;;;0.90;0.90;;;;;;;15.56;100.00;98057.88;5053212;28;20528;-89
2023/08/06 07:40:25;;;;;;;1.10;1.00;;;;;;;15.37;100.00;98024.63;5035496;28;20390;-89
2023/08/06 07:42:50;;;;;;;1.83;0.80;;;;;;;15.31;100.00;98026.03;5053278;28;20060;-89
2023/08/06 07:45:16;;;;;;;0.93;0.93;;;;;;;15.51;100.00;98060.09;5035214;28;20029;-89
2023/08/06 07:47:42;;;;;;;0.90;0.90;;;;;;;15.52;100.00;98073.06;5052572;28;20090;-89
2023/08/06 07:50:08;;;;;;;1.48;1.35;;;;;;;15.38;100.00;98047.25;5035582;28;20032;-89
2023/08/06 07:52:34;;;;;;;1.60;1.50;;;;;;;15.49;100.00;98057.59;5035044;28;20032;-89
2023/08/06 07:55:00;;;;;;;1.50;1.40;;;;;;;15.56;100.00;98058.69;5034413;28;20036;-89
2023/08/06 07:57:25;;;;;;;1.60;1.50;;;;;;;15.51;100.00;98047.00;5035231;28;20532;-89
2023/08/06 07:59:53;;;;;;;1.65;1.48;;;;;;;15.41;100.00;98029.44;5034794;28;20056;-89
2023/08/06 08:02:19;;;;;;;3.13;1.60;;;;;;;15.48;100.00;98037.59;5034989;28;20037;-89
2023/08/06 08:04:47;;;;;;;1.60;1.50;;;;;;;15.52;100.00;98046.84;5035217;28;20024;-90
2023/08/06 08:07:12;;;;;;;1.50;1.40;;;;;;;15.38;100.00;98019.25;5035273;28;20025;-89
2023/08/06 08:09:37;;;;;;;2.03;1.92;;;;;;;15.35;100.00;98016.09;5053265;28;20074;-88
2023/08/06 08:12:03;;;;;;;2.00;1.90;;;;;;;15.54;100.00;98037.00;5035072;28;20025;-89
2023/08/06 08:14:29;;;;;;;1.77;1.67;;;;;;;15.51;100.00;98020.75;5053152;28;20451;-89
2023/08/06 08:16:54;;;;;;;2.15;1.52;;;;;;;15.59;100.00;98034.81;5052433;28;20430;-89
2023/08/06 08:19:20;;;;;;;2.30;1.90;;;;;;;15.47;100.00;98004.47;5052244;28;20029;-90
2023/08/06 08:21:45;;;;;;;2.20;2.00;;;;;;;15.58;100.00;98011.31;5035403;28;20075;-89
2023/08/06 08:24:10;;;;;;;2.88;1.65;;;;;;;15.43;100.00;97996.03;5052600;28;20037;-89
2023/08/06 08:26:35;;;;;;;1.80;1.70;;;;;;;15.39;100.00;97981.56;5034561;28;20078;-89
2023/08/06 08:29:01;;;;;;;1.92;1.83;;;;;;;15.41;100.00;97986.66;5052659;28;20106;-89
2023/08/06 08:31:28;;;;;;;1.80;1.70;;;;;;;15.51;100.00;98003.22;5034904;28;20033;-89
2023/08/06 08:33:54;;;;;;;2.00;1.90;;;;;;;15.44;100.00;97995.06;5033881;28;20029;-89
2023/08/06 08:36:19;;;;;;;2.05;1.85;;;;;;;15.52;100.00;97990.91;5034585;28;20388;-89
2023/08/06 08:38:44;;;;;;;1.90;1.80;;;;;;;15.30;100.00;97934.38;5052140;28;20036;-88
2023/08/06 08:41:11;;;;;;;1.70;1.60;;;;;;;15.52;100.00;97949.75;5051526;28;20025;-89
2023/08/06 08:43:36;;;;;;;1.90;1.80;;;;;;;15.43;100.00;97924.38;5033707;28;20476;-88
2023/08/06 08:46:03;;;;;;;1.50;1.40;;;;;;;15.22;100.00;97888.69;5034244;28;20039;-88
2023/08/06 08:48:29;;;;;;;1.95;1.60;;;;;;;15.53;100.00;97932.22;5033987;28;20041;-89
2023/08/06 08:50:55;;;;;;;1.98;1.45;;;;;;;15.61;100.00;97953.31;5058113;28;20133;-91
2023/08/06 08:53:21;;;;;;;1.73;1.42;;;;;;;15.61;100.00;97954.13;5054136;28;20043;-90
2023/08/06 08:55:49;;;;;;;1.50;1.40;;;;;;;15.48;100.00;97920.34;5053844;28;20036;-90
2023/08/06 08:58:15;;;;;;;2.45;1.50;;;;;;;15.67;100.00;97950.13;5053525;28;20055;-90
2023/08/06 09:00:42;;;;;;;1.35;1.30;;;;;;;15.64;100.00;97911.03;5053677;28;20123;-90
2023/08/06 09:03:07;;;;;;;1.48;1.38;;;;;;;15.68;100.00;97918.50;5053542;28;20101;-90
2023/08/06 09:05:33;;;;;;;1.15;1.10;;;;;;;15.73;100.00;97902.31;5053521;28;20056;-90
2023/08/06 09:08:03;;;;;;;1.30;1.20;;;;;;;15.82;100.00;97914.53;5048714;28;20032;-89
2023/08/06 09:10:28;;;;;;;1.50;1.40;;;;;;;15.71;100.00;97896.38;5050828;28;20037;-92
2023/08/06 09:12:56;;;;;;;1.95;1.25;;;;;;;15.88;100.00;97921.81;5031676;28;20044;-90
2023/08/06 09:15:25;;;;;;;1.10;1.10;;;;;;;15.95;100.00;97925.53;5035213;28;20123;-90
2023/08/06 09:17:55;;;;;;;1.30;1.20;;;;;;;15.96;100.00;97918.47;5034371;28;20507;-92
2023/08/06 09:20:20;;;;;;;2.92;1.30;;;;;;;15.89;100.00;97909.56;5034303;28;20037;-91
2023/08/06 09:22:47;;;;;;;2.17;1.15;;;;;;;15.94;100.00;97916.00;5034083;28;20032;-91
2023/08/06 09:25:23;;;;;;;1.65;1.20;;;;;;;15.92;100.00;97917.09;5033531;28;20087;-91
2023/08/06 09:27:50;;;;;;;1.00;1.00;;;;;;;15.85;100.00;97898.50;5034164;28;20554;-92
2023/08/06 09:30:30;;;;;;;1.00;1.00;;;;;;;16.00;100.00;97916.38;5034506;28;20112;-92
2023/08/06 09:32:55;;;;;;;1.00;1.00;;;;;;;15.99;100.00;97920.81;5034692;28;20125;-91
2023/08/06 09:35:21;;;;;;;2.42;1.00;;;;;;;16.02;100.00;97909.19;5033825;28;20116;-89
2023/08/06 09:37:47;;;;;;;2.20;1.00;;;;;;;16.03;100.00;97916.91;5033648;28;20040;-91
2023/08/06 09:40:29;;;;;;;1.40;1.30;;;;;;;15.86;100.00;97902.78;5034206;28;20033;-93
2023/08/06 09:42:56;;;;;;;0.90;0.90;;;;;;;15.70;100.00;97881.59;5033639;28;20025;-90
2023/08/06 09:45:22;;;;;;;0.90;0.90;;;;;;;15.94;100.00;97928.31;5033517;28;20038;-91
2023/08/06 09:47:55;;;;;;;1.00;1.00;;;;;;;15.92;100.00;97941.56;5033664;28;20032;-89
2023/08/06 09:50:21;;;;;;;0.80;0.80;;;;;;;15.75;100.00;97925.78;5033351;28;20715;-89
2023/08/06 09:52:51;;;;;;;0.77;0.77;;;;;;;15.86;100.00;97942.16;5033698;28;20021;-91
2023/08/06 09:55:18;;;;;;;1.63;1.52;;;;;;;15.68;100.00;97907.19;5033125;28;20157;-90
2023/08/06 09:57:44;;;;;;;1.27;1.20;;;;;;;15.91;100.00;97946.97;5033355;28;20037;-89
2023/08/06 10:00:10;;;;;;;1.05;1.05;;;;;;;15.75;100.00;97925.78;5033263;28;20025;-90
2023/08/06 10:02:45;;;;;;;1.10;1.00;;;;;;;15.37;100.00;97875.91;5033419;28;20108;-95
2023/08/06 10:05:11;;;;;;;1.17;1.08;;;;;;;15.69;100.00;97935.88;5033565;28;20588;-89
2023/08/06 10:07:39;;;;;;;1.20;1.10;;;;;;;15.44;100.00;97899.78;5034697;28;20026;-91
2023/08/06 10:10:05;;;;;;;1.25;1.10;;;;;;;15.73;100.00;97956.59;5034135;28;20417;-88
2023/08/06 10:12:35;;;;;;;0.82;0.80;;;;;;;15.72;100.00;97968.91;5034582;28;20057;-88
2023/08/06 10:15:03;;;;;;;1.45;0.90;;;;;;;15.69;100.00;97962.13;5036216;28;20033;-88
2023/08/06 10:17:30;;;;;;;0.90;0.90;;;;;;;15.77;100.00;97963.22;5036223;28;20036;-88
2023/08/06 10:19:56;;;;;;;1.20;1.13;;;;;;;15.67;100.00;97944.88;5053806;28;20021;-88
2023/08/06 10:22:23;;;;;;;1.20;1.10;;;;;;;15.69;100.00;97940.31;5054063;28;20031;-88
2023/08/06 10:24:56;;;;;;;0.93;0.93;;;;;;;15.74;100.00;97951.19;5034877;28;20025;-88
2023/08/06 10:27:35;;;;;;;1.08;1.08;;;;;;;15.81;100.00;97946.22;5054013;28;20465;-88
2023/08/06 10:30:25;;;;;;;2.05;1.85;;;;;;;15.79;100.00;97964.72;5035665;28;20037;-88
2023/08/06 10:32:56;;;;;;;2.25;1.33;;;;;;;15.75;100.00;97960.72;5053973;28;20025;-88
2023/08/06 10:35:43;;;;;;;1.60;1.50;;;;;;;15.73;100.00;97957.44;5036539;28;20051;-88
2023/08/06 10:38:16;;;;;;;2.67;1.55;;;;;;;15.82;100.00;97955.72;5053695;28;20119;-88
2023/08/06 10:41:02;;;;;;;1.83;1.15;;;;;;;15.76;100.00;97943.16;5036074;28;20383;-87
2023/08/06 10:43:43;;;;;;;1.63;1.52;;;;;;;15.79;100.00;97941.09;5035531;28;20041;-87
2023/08/06 10:46:26;;;;;;;1.48;1.23;;;;;;;15.70;100.00;97911.28;5055083;28;20055;-87
2023/08/06 10:48:52;;;;;;;2.33;1.42;;;;;;;15.77;100.00;97927.28;5059375;28;20052;-87
2023/08/06 10:51:17;;;;;;;1.58;1.42;;;;;;;15.76;100.00;97904.66;5055833;28;20029;-86
2023/08/06 10:53:47;;;;;;;2.20;1.50;;;;;;;15.84;100.00;97896.84;5038547;28;20021;-86
2023/08/06 10:56:17;;;;;;;1.92;1.40;;;;;;;15.90;100.00;97888.38;5038216;28;20520;-87
2023/08/06 10:58:43;;;;;;;1.63;1.27;;;;;;;15.78;100.00;97858.06;5039001;28;20484;-87
2023/08/06 11:01:13;;;;;;;1.42;1.33;;;;;;;15.94;100.00;97871.38;5039432;28;20123;-84
2023/08/06 11:03:39;;;;;;;1.50;1.10;;;;;;;16.02;100.00;97869.81;5056225;28;20021;-86
2023/08/06 11:06:06;;;;;;;1.05;1.05;;;;;;;15.95;100.00;97838.88;5039065;28;20025;-87
2023/08/06 11:08:37;;;;;;;1.67;1.10;;;;;;;16.14;100.00;97864.19;5038623;28;20021;-87
2023/08/06 11:11:11;;;;;;;4.25;1.10;;;;;;;15.98;100.00;97835.13;5039135;28;20025;-86
2023/08/06 11:13:38;;;;;;;1.10;1.10;;;;;;;16.14;100.00;97855.47;5037451;28;20055;-86
2023/08/06 11:16:04;;;;;;;1.25;1.15;;;;;;;16.09;100.00;97845.41;5056233;28;20045;-86
2023/08/06 11:18:30;;;;;;;1.27;1.17;;;;;;;16.05;100.00;97845.84;5037857;28;20035;-87
2023/08/06 11:20:58;;;;;;;1.30;1.20;;;;;;;16.02;100.00;97840.91;5056385;28;20061;-87